sensor_id;sensor_type;location;lat;lon;timestamp;P1;durP1;ratioP1;P2;durP2;ratioP2
15557;SDS011;7880;50.110;9.372;2023-08-21T00:03:51;5.323076923076924;;;4.661538461538462;;
15557;SDS011;7880;50.110;9.372;2023-08-21T00:08:49;6.023076923076925;;;4.6000000000000005;;
15557;SDS011;7880;50.110;9.372;2023-08-21T00:13:52;6.707692307692307;;;4.1000000000000005;;
15557;SDS011;7880;50.110;9.372;2023-08-21T00:18:58;6.60769230769231;;;3.969230769230769;;
15557;SDS011;7880;50.110;9.372;2023-08-21T00:24:03;6.06923076923077;;;4.33076923076923;;
15557;SDS011;7880;50.110;9.372;2023-08-21T00:29:12;6.307692307692306;;;5.369230769230768;;
15557;SDS011;7880;50.110;9.372;2023-08-21T00:34:14;9.776923076923076;;;4.769230769230769;;
15557;SDS011;7880;50.110;9.372;2023-08-21T00:39:21;6.299999999999998;;;4.430769230769231;;
15557;SDS011;7880;50.110;9.372;2023-08-21T00:44:22;5.700000000000002;;;4.3999999999999995;;
15557;SDS011;7880;50.110;9.372;2023-08-21T00:49:28;4.9692307692307685;;;4.469230769230769;;
15557;SDS011;7880;50.110;9.372;2023-08-21T00:54:33;5.06923076923077;;;4.569230769230769;;
15557;SDS011;7880;50.110;9.372;2023-08-21T00:59:41;8.538461538461538;;;4.799999999999999;;
15557;SDS011;7880;50.110;9.372;2023-08-21T01:04:51;5.03076923076923;;;4.530769230769231;;
15557;SDS011;7880;50.110;9.372;2023-08-21T01:09:59;5.869230769230768;;;4.3999999999999995;;
15557;SDS011;7880;50.110;9.372;2023-08-21T01:15:01;8.33846153846154;;;4.96923076923077;;
15557;SDS011;7880;50.110;9.372;2023-08-21T01:20:06;5.200000000000001;;;4.23076923076923;;
15557;SDS011;7880;50.110;9.372;2023-08-21T01:25:13;5.56923076923077;;;4.8999999999999995;;
15557;SDS011;7880;50.110;9.372;2023-08-21T01:30:16;10.176923076923076;;;5.5;;
15557;SDS011;7880;50.110;9.372;2023-08-21T01:35:22;7.707692307692307;;;5.1000000000000005;;
15557;SDS011;7880;50.110;9.372;2023-08-21T01:40:26;5.299999999999999;;;4.799999999999999;;
15557;SDS011;7880;50.110;9.372;2023-08-21T01:45:31;8.076923076923077;;;5.06923076923077;;
15557;SDS011;7880;50.110;9.372;2023-08-21T01:50:37;9.246153846153847;;;6.038461538461541;;
15557;SDS011;7880;50.110;9.372;2023-08-21T01:55:44;8.599999999999998;;;5.53076923076923;;
15557;SDS011;7880;50.110;9.372;2023-08-21T02:00:53;13.676923076923078;;;5.3307692307692305;;
15557;SDS011;7880;50.110;9.372;2023-08-21T02:06:04;7.669230769230769;;;5.230769230769231;;
15557;SDS011;7880;50.110;9.372;2023-08-21T02:11:00;6.200000000000002;;;5.200000000000001;;
15557;SDS011;7880;50.110;9.372;2023-08-21T02:16:06;6.023076923076922;;;4.430769230769231;;
15557;SDS011;7880;50.110;9.372;2023-08-21T02:21:12;5.46923076923077;;;4.6000000000000005;;
15557;SDS011;7880;50.110;9.372;2023-08-21T02:26:47;5.9;;;5.299999999999999;;
15557;SDS011;7880;50.110;9.372;2023-08-21T02:31:26;5.230769230769231;;;4.730769230769231;;
15557;SDS011;7880;50.110;9.372;2023-08-21T02:36:32;5.4;;;4.8999999999999995;;
15557;SDS011;7880;50.110;9.372;2023-08-21T02:41:43;9.538461538461538;;;4.830769230769231;;
15557;SDS011;7880;50.110;9.372;2023-08-21T02:46:42;7.407692307692309;;;5.269230769230769;;
15557;SDS011;7880;50.110;9.372;2023-08-21T02:51:48;8.638461538461538;;;5.700000000000002;;
15557;SDS011;7880;50.110;9.372;2023-08-21T02:56:52;11.846153846153847;;;5.230769230769231;;
15557;SDS011;7880;50.110;9.372;2023-08-21T03:01:57;8.469230769230771;;;5.0;;
15557;SDS011;7880;50.110;9.372;2023-08-21T03:07:03;5.730769230769231;;;4.730769230769231;;
15557;SDS011;7880;50.110;9.372;2023-08-21T03:12:11;10.823076923076924;;;4.830769230769231;;
15557;SDS011;7880;50.110;9.372;2023-08-21T03:17:19;5.369230769230768;;;4.869230769230769;;
15557;SDS011;7880;50.110;9.372;2023-08-21T03:22:21;5.799999999999998;;;5.200000000000001;;
15557;SDS011;7880;50.110;9.372;2023-08-21T03:27:26;8.807692307692308;;;5.299999999999999;;
15557;SDS011;7880;50.110;9.372;2023-08-21T03:32:33;7.269230769230769;;;5.3307692307692305;;
15557;SDS011;7880;50.110;9.372;2023-08-21T03:37:46;6.523076923076924;;;5.192307692307693;;
15557;SDS011;7880;50.110;9.372;2023-08-21T03:42:43;6.169230769230769;;;5.56923076923077;;
15557;SDS011;7880;50.110;9.372;2023-08-21T03:47:47;6.5;;;5.9;;
15557;SDS011;7880;50.110;9.372;2023-08-21T03:52:53;8.607692307692309;;;5.9;;
15557;SDS011;7880;50.110;9.372;2023-08-21T03:58:00;6.1;;;5.5;;
15557;SDS011;7880;50.110;9.372;2023-08-21T04:03:04;9.138461538461538;;;5.5;;
15557;SDS011;7880;50.110;9.372;2023-08-21T04:08:09;6.738461538461536;;;5.06923076923077;;
15557;SDS011;7880;50.110;9.372;2023-08-21T04:13:15;7.5;;;5.630769230769232;;
15557;SDS011;7880;50.110;9.372;2023-08-21T04:18:25;6.969230769230771;;;5.4;;
15557;SDS011;7880;50.110;9.372;2023-08-21T04:23:26;5.3307692307692305;;;4.830769230769231;;
15557;SDS011;7880;50.110;9.372;2023-08-21T04:28:32;5.6;;;5.1000000000000005;;
15557;SDS011;7880;50.110;9.372;2023-08-21T04:33:40;5.799999999999998;;;5.1000000000000005;;
15557;SDS011;7880;50.110;9.372;2023-08-21T04:38:43;5.6;;;5.1000000000000005;;
15557;SDS011;7880;50.110;9.372;2023-08-21T04:43:49;6.1;;;4.93076923076923;;
15557;SDS011;7880;50.110;9.372;2023-08-21T04:48:54;4.869230769230769;;;4.369230769230769;;
15557;SDS011;7880;50.110;9.372;2023-08-21T04:53:59;6.299999999999998;;;5.0;;
15557;SDS011;7880;50.110;9.372;2023-08-21T04:59:10;10.77692307692308;;;4.700000000000001;;
15557;SDS011;7880;50.110;9.372;2023-08-21T05:04:10;9.323076923076924;;;5.730769230769233;;
15557;SDS011;7880;50.110;9.372;2023-08-21T05:09:16;5.738461538461537;;;5.1692307692307695;;
15557;SDS011;7880;50.110;9.372;2023-08-21T07:38:07;23.83846153846154;;;18.930769230769233;;
15557;SDS011;7880;50.110;9.372;2023-08-21T07:43:12;21.969230769230766;;;18.800000000000004;;
15557;SDS011;7880;50.110;9.372;2023-08-21T07:48:18;21.707692307692312;;;16.830769230769235;;
15557;SDS011;7880;50.110;9.372;2023-08-21T07:53:31;21.707692307692312;;;16.53076923076923;;
15557;SDS011;7880;50.110;9.372;2023-08-21T07:58:43;18.407692307692304;;;15.238461538461536;;
15557;SDS011;7880;50.110;9.372;2023-08-21T08:03:33;16.099999999999998;;;14.400000000000004;;
15557;SDS011;7880;50.110;9.372;2023-08-21T08:08:44;15.530769230769229;;;13.930769230769233;;
15557;SDS011;7880;50.110;9.372;2023-08-21T08:13:44;17.338461538461537;;;12.33076923076923;;
15557;SDS011;7880;50.110;9.372;2023-08-21T08:19:05;9.669230769230769;;;8.669230769230769;;
15557;SDS011;7880;50.110;9.372;2023-08-21T08:23:58;11.192307692307692;;;9.230769230769234;;
15557;SDS011;7880;50.110;9.372;2023-08-21T08:29:01;15.838461538461537;;;12.369230769230775;;
15557;SDS011;7880;50.110;9.372;2023-08-21T08:34:07;13.746153846153849;;;9.769230769230768;;
15557;SDS011;7880;50.110;9.372;2023-08-21T08:39:12;11.207692307692307;;;9.099999999999998;;
15557;SDS011;7880;50.110;9.372;2023-08-21T08:44:23;9.0;;;7.161538461538461;;
15557;SDS011;7880;50.110;9.372;2023-08-21T08:49:25;10.238461538461536;;;6.953846153846153;;
15557;SDS011;7880;50.110;9.372;2023-08-21T08:54:31;13.27692307692308;;;8.76923076923077;;
15557;SDS011;7880;50.110;9.372;2023-08-21T08:59:37;15.64615384615385;;;8.599999999999998;;
15557;SDS011;7880;50.110;9.372;2023-08-21T09:04:53;12.27692307692308;;;7.469230769230771;;
15557;SDS011;7880;50.110;9.372;2023-08-21T09:09:50;12.338461538461537;;;7.599999999999999;;
15557;SDS011;7880;50.110;9.372;2023-08-21T09:14:54;7.5;;;6.700000000000002;;
15557;SDS011;7880;50.110;9.372;2023-08-21T09:20:04;9.200000000000001;;;7.269230769230769;;
15557;SDS011;7880;50.110;9.372;2023-08-21T09:25:07;8.946153846153846;;;7.092307692307691;;
15557;SDS011;7880;50.110;9.372;2023-08-21T09:30:14;8.938461538461539;;;7.669230769230769;;
15557;SDS011;7880;50.110;9.372;2023-08-21T09:35:16;12.476923076923072;;;9.200000000000001;;
15557;SDS011;7880;50.110;9.372;2023-08-21T09:40:23;11.3;;;8.930769230769231;;
15557;SDS011;7880;50.110;9.372;2023-08-21T09:45:32;10.33076923076923;;;9.430769230769231;;
15557;SDS011;7880;50.110;9.372;2023-08-21T09:50:35;9.730769230769234;;;8.73076923076923;;
15557;SDS011;7880;50.110;9.372;2023-08-21T09:55:40;10.13076923076923;;;9.0;;
15557;SDS011;7880;50.110;9.372;2023-08-21T10:00:49;10.0;;;7.730769230769231;;
15557;SDS011;7880;50.110;9.372;2023-08-21T10:05:52;9.299999999999999;;;8.400000000000002;;
15557;SDS011;7880;50.110;9.372;2023-08-21T10:11:04;12.161538461538463;;;7.900000000000001;;
15557;SDS011;7880;50.110;9.372;2023-08-21T10:16:03;9.838461538461539;;;7.799999999999998;;
15557;SDS011;7880;50.110;9.372;2023-08-21T10:21:10;10.299999999999999;;;7.400000000000001;;
15557;SDS011;7880;50.110;9.372;2023-08-21T10:26:14;7.730769230769231;;;7.0;;
15557;SDS011;7880;50.110;9.372;2023-08-21T10:31:28;7.238461538461536;;;6.469230769230771;;
15557;SDS011;7880;50.110;9.372;2023-08-21T10:36:36;9.669230769230769;;;5.93076923076923;;
15557;SDS011;7880;50.110;9.372;2023-08-21T10:41:33;7.961538461538459;;;7.130769230769232;;
15557;SDS011;7880;50.110;9.372;2023-08-21T10:46:49;9.692307692307692;;;8.13076923076923;;
15557;SDS011;7880;50.110;9.372;2023-08-21T10:51:46;8.238461538461536;;;7.469230769230771;;
15557;SDS011;7880;50.110;9.372;2023-08-21T10:56:46;6.86153846153846;;;5.4;;
15557;SDS011;7880;50.110;9.372;2023-08-21T11:01:54;5.969230769230771;;;5.299999999999999;;
15557;SDS011;7880;50.110;9.372;2023-08-21T11:06:57;7.438461538461538;;;4.700000000000001;;
15557;SDS011;7880;50.110;9.372;2023-08-21T11:12:05;3.7999999999999994;;;3.5;;
15557;SDS011;7880;50.110;9.372;2023-08-21T11:17:13;5.623076923076924;;;3.6230769230769244;;
15557;SDS011;7880;50.110;9.372;2023-08-21T11:22:16;5.738461538461537;;;3.06923076923077;;
15557;SDS011;7880;50.110;9.372;2023-08-21T11:27:22;4.0;;;3.600000000000001;;
15557;SDS011;7880;50.110;9.372;2023-08-21T11:32:30;5.061538461538462;;;3.5;;
15557;SDS011;7880;50.110;9.372;2023-08-21T11:37:52;5.06923076923077;;;3.600000000000001;;
15557;SDS011;7880;50.110;9.372;2023-08-21T11:42:41;3.93076923076923;;;3.5;;
15557;SDS011;7880;50.110;9.372;2023-08-21T11:47:47;4.269230769230769;;;3.56923076923077;;
15557;SDS011;7880;50.110;9.372;2023-08-21T11:52:58;3.838461538461539;;;3.169230769230769;;
15557;SDS011;7880;50.110;9.372;2023-08-21T11:57:59;5.138461538461538;;;3.7692307692307705;;
15557;SDS011;7880;50.110;9.372;2023-08-21T12:03:06;3.2307692307692295;;;3.030769230769231;;
15557;SDS011;7880;50.110;9.372;2023-08-21T12:08:17;4.138461538461539;;;2.899999999999999;;
15557;SDS011;7880;50.110;9.372;2023-08-21T12:13:17;4.938461538461538;;;2.899999999999999;;
15557;SDS011;7880;50.110;9.372;2023-08-21T12:18:20;5.038461538461539;;;2.3999999999999995;;
15557;SDS011;7880;50.110;9.372;2023-08-21T12:23:26;4.423076923076923;;;2.8;;
15557;SDS011;7880;50.110;9.372;2023-08-21T12:28:38;3.2692307692307705;;;2.030769230769231;;
15557;SDS011;7880;50.110;9.372;2023-08-21T12:33:42;3.761538461538461;;;2.230769230769231;;
15557;SDS011;7880;50.110;9.372;2023-08-21T12:38:45;3.399999999999999;;;2.7692307692307705;;
15557;SDS011;7880;50.110;9.372;2023-08-21T12:42:19;3.638461538461539;;;2.638461538461539;;
15557;SDS011;7880;50.110;9.372;2023-08-21T12:47:25;3.06923076923077;;;2.6000000000000005;;
15557;SDS011;7880;50.110;9.372;2023-08-21T12:52:29;5.0;;;2.6000000000000005;;
15557;SDS011;7880;50.110;9.372;2023-08-21T12:57:35;3.2999999999999994;;;3.0;;
15557;SDS011;7880;50.110;9.372;2023-08-21T13:02:40;3.7999999999999994;;;3.100000000000001;;
15557;SDS011;7880;50.110;9.372;2023-08-21T13:07:47;3.169230769230769;;;2.7;;
15557;SDS011;7880;50.110;9.372;2023-08-21T13:12:54;6.038461538461541;;;3.469230769230769;;
15557;SDS011;7880;50.110;9.372;2023-08-21T13:18:00;2.3999999999999995;;;2.1999999999999997;;
15557;SDS011;7880;50.110;9.372;2023-08-21T13:23:09;4.038461538461538;;;3.0;;
15557;SDS011;7880;50.110;9.372;2023-08-21T13:28:12;2.630769230769231;;;2.430769230769231;;
15557;SDS011;7880;50.110;9.372;2023-08-21T13:33:18;4.461538461538462;;;2.830769230769231;;
15557;SDS011;7880;50.110;9.372;2023-08-21T13:38:22;3.6692307692307695;;;2.530769230769231;;
15557;SDS011;7880;50.110;9.372;2023-08-21T13:43:29;4.1000000000000005;;;2.8;;
15557;SDS011;7880;50.110;9.372;2023-08-21T13:48:34;2.7;;;2.5;;
15557;SDS011;7880;50.110;9.372;2023-08-21T13:53:41;2.7307692307692313;;;2.3999999999999995;;
15557;SDS011;7880;50.110;9.372;2023-08-21T13:58:43;4.5;;;2.7307692307692295;;
15557;SDS011;7880;50.110;9.372;2023-08-21T14:03:46;2.969230769230769;;;2.0;;
15557;SDS011;7880;50.110;9.372;2023-08-21T14:08:52;2.1307692307692307;;;1.9307692307692308;;
15557;SDS011;7880;50.110;9.372;2023-08-21T14:14:05;1.8307692307692305;;;1.6999999999999995;;
15557;SDS011;7880;50.110;9.372;2023-08-21T14:19:01;2.1000000000000005;;;1.6999999999999995;;
15557;SDS011;7880;50.110;9.372;2023-08-21T14:24:07;2.269230769230769;;;1.6999999999999995;;
15557;SDS011;7880;50.110;9.372;2023-08-21T14:29:10;4.8076923076923075;;;2.269230769230769;;
15557;SDS011;7880;50.110;9.372;2023-08-21T14:34:19;2.1000000000000005;;;1.6307692307692305;;
15557;SDS011;7880;50.110;9.372;2023-08-21T14:39:21;2.369230769230769;;;2.030769230769231;;
15557;SDS011;7880;50.110;9.372;2023-08-21T14:44:26;4.2384615384615385;;;2.7692307692307705;;
15557;SDS011;7880;50.110;9.372;2023-08-21T14:49:42;4.353846153846153;;;2.5538461538461537;;
15557;SDS011;7880;50.110;9.372;2023-08-21T14:54:37;3.2538461538461547;;;2.430769230769231;;
15557;SDS011;7880;50.110;9.372;2023-08-21T14:59:45;5.307692307692306;;;2.0;;
15557;SDS011;7880;50.110;9.372;2023-08-21T15:04:49;2.3000000000000003;;;2.1000000000000005;;
15557;SDS011;7880;50.110;9.372;2023-08-21T15:10:04;5.607692307692309;;;2.8;;
15557;SDS011;7880;50.110;9.372;2023-08-21T15:15:04;2.207692307692308;;;1.953846153846154;;
15557;SDS011;7880;50.110;9.372;2023-08-21T15:20:08;2.5;;;2.0;;
15557;SDS011;7880;50.110;9.372;2023-08-21T15:25:13;2.93076923076923;;;1.8307692307692305;;
15557;SDS011;7880;50.110;9.372;2023-08-21T15:30:19;2.838461538461538;;;2.569230769230769;;
15557;SDS011;7880;50.110;9.372;2023-08-21T15:35:25;3.369230769230768;;;2.030769230769231;;
15557;SDS011;7880;50.110;9.372;2023-08-21T15:40:36;2.530769230769231;;;2.330769230769231;;
15557;SDS011;7880;50.110;9.372;2023-08-21T15:45:43;4.8076923076923075;;;2.1999999999999997;;
15557;SDS011;7880;50.110;9.372;2023-08-21T15:50:50;2.1000000000000005;;;2.0;;
15557;SDS011;7880;50.110;9.372;2023-08-21T15:55:55;2.661538461538462;;;2.430769230769231;;
15557;SDS011;7880;50.110;9.372;2023-08-21T16:01:01;2.7;;;2.5;;
15557;SDS011;7880;50.110;9.372;2023-08-21T16:06:07;5.230769230769231;;;3.399999999999999;;
15557;SDS011;7880;50.110;9.372;2023-08-21T16:11:10;3.738461538461539;;;2.3999999999999995;;
15557;SDS011;7880;50.110;9.372;2023-08-21T16:16:15;4.1000000000000005;;;2.430769230769231;;
15557;SDS011;7880;50.110;9.372;2023-08-21T16:21:23;4.984615384615385;;;2.630769230769231;;
15557;SDS011;7880;50.110;9.372;2023-08-21T16:28:16;2.661538461538462;;;2.4615384615384617;;
15557;SDS011;7880;50.110;9.372;2023-08-21T16:33:19;2.7;;;2.5;;
15557;SDS011;7880;50.110;9.372;2023-08-21T16:38:26;2.8692307692307684;;;2.3000000000000003;;
15557;SDS011;7880;50.110;9.372;2023-08-21T16:43:33;3.2;;;2.430769230769231;;
15557;SDS011;7880;50.110;9.372;2023-08-21T16:48:47;4.838461538461538;;;2.7692307692307705;;
15557;SDS011;7880;50.110;9.372;2023-08-21T16:53:42;2.530769230769231;;;2.330769230769231;;
15557;SDS011;7880;50.110;9.372;2023-08-21T16:58:48;2.3999999999999995;;;2.1999999999999997;;
15557;SDS011;7880;50.110;9.372;2023-08-21T17:03:55;3.56923076923077;;;2.3000000000000003;;
15557;SDS011;7880;50.110;9.372;2023-08-21T17:09:01;3.56923076923077;;;2.469230769230769;;
15557;SDS011;7880;50.110;9.372;2023-08-21T17:14:08;3.2;;;2.7;;
15557;SDS011;7880;50.110;9.372;2023-08-21T17:19:16;3.399999999999999;;;2.5;;
15557;SDS011;7880;50.110;9.372;2023-08-21T17:24:26;4.938461538461539;;;2.6000000000000005;;
15557;SDS011;7880;50.110;9.372;2023-08-21T17:29:25;3.0;;;2.330769230769231;;
15557;SDS011;7880;50.110;9.372;2023-08-21T17:34:31;6.807692307692306;;;2.7;;
15557;SDS011;7880;50.110;9.372;2023-08-21T17:39:38;4.769230769230769;;;2.330769230769231;;
15557;SDS011;7880;50.110;9.372;2023-08-21T17:44:54;9.438461538461537;;;3.2999999999999994;;
15557;SDS011;7880;50.110;9.372;2023-08-21T17:48:29;3.184615384615385;;;2.8;;
15557;SDS011;7880;50.110;9.372;2023-08-21T17:53:41;3.7692307692307705;;;2.530769230769231;;
15557;SDS011;7880;50.110;9.372;2023-08-21T17:58:47;3.06923076923077;;;2.7692307692307705;;
15557;SDS011;7880;50.110;9.372;2023-08-21T18:03:46;4.700000000000001;;;2.369230769230769;;
15557;SDS011;7880;50.110;9.372;2023-08-21T18:09:04;3.030769230769231;;;2.7307692307692295;;
15557;SDS011;7880;50.110;9.372;2023-08-21T18:13:58;3.130769230769232;;;2.830769230769231;;
15557;SDS011;7880;50.110;9.372;2023-08-21T18:19:26;5.138461538461538;;;3.2307692307692295;;
15557;SDS011;7880;50.110;9.372;2023-08-21T18:24:33;3.56923076923077;;;2.6000000000000005;;
15557;SDS011;7880;50.110;9.372;2023-08-21T18:29:49;3.492307692307693;;;3.0;;
15557;SDS011;7880;50.110;9.372;2023-08-21T18:34:44;5.869230769230768;;;3.2999999999999994;;
15557;SDS011;7880;50.110;9.372;2023-08-21T18:39:52;8.007692307692306;;;3.0;;
15557;SDS011;7880;50.110;9.372;2023-08-21T18:44:56;3.469230769230769;;;3.06923076923077;;
15557;SDS011;7880;50.110;9.372;2023-08-21T18:50:03;2.899999999999999;;;2.430769230769231;;
15557;SDS011;7880;50.110;9.372;2023-08-21T18:55:08;5.807692307692306;;;2.669230769230769;;
15557;SDS011;7880;50.110;9.372;2023-08-21T19:00:14;5.0;;;2.830769230769231;;
15557;SDS011;7880;50.110;9.372;2023-08-21T19:05:19;4.0307692307692315;;;2.8;;
15557;SDS011;7880;50.110;9.372;2023-08-21T19:10:26;3.2692307692307705;;;2.7;;
15557;SDS011;7880;50.110;9.372;2023-08-21T19:15:30;3.100000000000001;;;2.7;;
15557;SDS011;7880;50.110;9.372;2023-08-21T19:20:35;5.484615384615386;;;2.899999999999999;;
15557;SDS011;7880;50.110;9.372;2023-08-21T19:25:42;3.899999999999999;;;2.7461538461538453;;
15557;SDS011;7880;50.110;9.372;2023-08-21T19:30:51;4.200000000000001;;;2.8;;
15557;SDS011;7880;50.110;9.372;2023-08-21T19:35:55;5.369230769230768;;;3.2;;
15557;SDS011;7880;50.110;9.372;2023-08-21T19:41:02;4.484615384615384;;;2.7;;
15557;SDS011;7880;50.110;9.372;2023-08-21T19:46:09;6.207692307692307;;;3.169230769230769;;
15557;SDS011;7880;50.110;9.372;2023-08-21T19:51:18;5.56923076923077;;;2.7307692307692295;;
15557;SDS011;7880;50.110;9.372;2023-08-21T19:56:21;4.299999999999999;;;2.7307692307692295;;
15557;SDS011;7880;50.110;9.372;2023-08-21T20:01:27;3.2307692307692317;;;2.9307692307692297;;
15557;SDS011;7880;50.110;9.372;2023-08-21T20:06:34;5.938461538461538;;;2.7692307692307705;;
15557;SDS011;7880;50.110;9.372;2023-08-21T20:11:43;2.899999999999999;;;2.7;;
15557;SDS011;7880;50.110;9.372;2023-08-21T20:16:43;2.899999999999999;;;2.7;;
15557;SDS011;7880;50.110;9.372;2023-08-21T20:21:49;4.0;;;3.0;;
15557;SDS011;7880;50.110;9.372;2023-08-21T20:26:59;7.761538461538464;;;3.2;;
15557;SDS011;7880;50.110;9.372;2023-08-21T20:32:03;6.038461538461541;;;3.2692307692307705;;
15557;SDS011;7880;50.110;9.372;2023-08-21T20:37:08;4.299999999999999;;;3.2;;
15557;SDS011;7880;50.110;9.372;2023-08-21T20:42:13;4.469230769230769;;;3.2692307692307705;;
15557;SDS011;7880;50.110;9.372;2023-08-21T20:47:20;4.6692307692307695;;;3.130769230769232;;
15557;SDS011;7880;50.110;9.372;2023-08-21T20:52:30;2.7;;;2.5;;
15557;SDS011;7880;50.110;9.372;2023-08-21T20:57:33;3.761538461538461;;;3.43076923076923;;
15557;SDS011;7880;50.110;9.372;2023-08-21T21:02:38;7.007692307692308;;;3.5;;
15557;SDS011;7880;50.110;9.372;2023-08-21T21:07:44;3.399999999999999;;;3.100000000000001;;
15557;SDS011;7880;50.110;9.372;2023-08-21T21:13:00;5.038461538461539;;;3.399999999999999;;
15557;SDS011;7880;50.110;9.372;2023-08-21T21:17:56;5.607692307692309;;;3.2692307692307705;;
15557;SDS011;7880;50.110;9.372;2023-08-21T21:23:02;5.03076923076923;;;4.269230769230769;;
15557;SDS011;7880;50.110;9.372;2023-08-21T21:28:11;4.200000000000001;;;3.7000000000000006;;
15557;SDS011;7880;50.110;9.372;2023-08-21T21:33:14;3.630769230769232;;;3.130769230769232;;
15557;SDS011;7880;50.110;9.372;2023-08-21T21:38:20;7.261538461538463;;;3.600000000000001;;
15557;SDS011;7880;50.110;9.372;2023-08-21T21:43:28;4.769230769230769;;;3.7000000000000006;;
15557;SDS011;7880;50.110;9.372;2023-08-21T21:48:30;6.200000000000002;;;5.3307692307692305;;
15557;SDS011;7880;50.110;9.372;2023-08-21T21:53:37;6.469230769230771;;;4.8999999999999995;;
15557;SDS011;7880;50.110;9.372;2023-08-21T21:58:43;7.13846153846154;;;4.8999999999999995;;
15557;SDS011;7880;50.110;9.372;2023-08-21T22:03:50;5.200000000000001;;;4.700000000000001;;
15557;SDS011;7880;50.110;9.372;2023-08-21T22:08:54;3.899999999999999;;;3.2999999999999994;;
15557;SDS011;7880;50.110;9.372;2023-08-21T22:14:00;6.238461538461536;;;3.530769230769231;;
15557;SDS011;7880;50.110;9.372;2023-08-21T22:19:08;4.3999999999999995;;;4.0;;
15557;SDS011;7880;50.110;9.372;2023-08-21T22:24:12;4.0;;;3.600000000000001;;
15557;SDS011;7880;50.110;9.372;2023-08-21T22:29:18;4.353846153846154;;;3.8615384615384616;;
15557;SDS011;7880;50.110;9.372;2023-08-21T22:34:36;3.8846153846153837;;;3.2999999999999994;;
15557;SDS011;7880;50.110;9.372;2023-08-21T22:39:28;6.0;;;3.56923076923077;;
15557;SDS011;7880;50.110;9.372;2023-08-21T22:44:34;3.738461538461539;;;3.369230769230768;;
15557;SDS011;7880;50.110;9.372;2023-08-21T22:49:41;5.938461538461538;;;3.2;;
15557;SDS011;7880;50.110;9.372;2023-08-21T22:54:45;9.923076923076923;;;4.638461538461538;;
15557;SDS011;7880;50.110;9.372;2023-08-21T22:59:42;6.238461538461536;;;3.630769230769232;;
15557;SDS011;7880;50.110;9.372;2023-08-21T23:04:48;3.7307692307692295;;;3.2999999999999994;;
15557;SDS011;7880;50.110;9.372;2023-08-21T23:09:57;7.238461538461536;;;4.0;;
15557;SDS011;7880;50.110;9.372;2023-08-21T23:14:59;5.130769230769232;;;4.630769230769232;;
15557;SDS011;7880;50.110;9.372;2023-08-21T23:20:09;8.03846153846154;;;5.630769230769232;;
15557;SDS011;7880;50.110;9.372;2023-08-21T23:25:11;9.13076923076923;;;5.200000000000001;;
15557;SDS011;7880;50.110;9.372;2023-08-21T23:30:16;5.6692307692307695;;;4.469230769230769;;
15557;SDS011;7880;50.110;9.372;2023-08-21T23:35:26;9.338461538461539;;;4.700000000000001;;
15557;SDS011;7880;50.110;9.372;2023-08-21T23:40:29;4.23076923076923;;;3.8307692307692305;;
15557;SDS011;7880;50.110;9.372;2023-08-21T23:45:37;4.269230769230769;;;3.869230769230768;;
15557;SDS011;7880;50.110;9.372;2023-08-21T23:50:39;4.96923076923077;;;4.469230769230769;;
15557;SDS011;7880;50.110;9.372;2023-08-21T23:55:45;6.023076923076924;;;3.399999999999999;;
